DAL504 KATL-KDCA
Flight info
| Callsign | DAL504 |
|---|---|
| Flight time | 1h 19m |
| Altitude | 35000 |
| Route | JACCC2 KELLN Q56 KIWII WAVES CAPSS4 |
| Aircraft | B738/M-SDE2E3FGHIRWXY/LB1 |
Departure
| Time | 2026-05-04 07:38 |
|---|---|
| Airport | Hartsfield Jackson Atlanta International Airport (KATL) |
Arrival
| Time | 2026-05-04 08:57 |
|---|---|
| Airport | Ronald Reagan Washington National Airport (KDCA) |
| Time | Latitude | Longitude | Altitude | Speed | Heading |
|---|---|---|---|---|---|
| 2026-05-04 07:17 | 33.64304 | -84.43644 | 1016 ft | 0 kts | 89° |
| 2026-05-04 07:26 | 33.64304 | -84.43647 | 1015 ft | 1 kts | 89° |
| 2026-05-04 07:27 | 33.64304 | -84.43665 | 1016 ft | 2 kts | 89° |
| 2026-05-04 07:27 | 33.64304 | -84.43682 | 1016 ft | 2 kts | 92° |
| 2026-05-04 07:27 | 33.64304 | -84.43700 | 1016 ft | 2 kts | 90° |
| 2026-05-04 07:27 | 33.64304 | -84.43710 | 1017 ft | 1 kts | 73° |
| 2026-05-04 07:28 | 33.64298 | -84.43720 | 1017 ft | 1 kts | 14° |
| 2026-05-04 07:28 | 33.64292 | -84.43720 | 1017 ft | 1 kts | 355° |
| 2026-05-04 07:28 | 33.64288 | -84.43720 | 1017 ft | 0 kts | 360° |
| 2026-05-04 07:30 | 33.64334 | -84.43721 | 1017 ft | 10 kts | 359° |
| 2026-05-04 07:30 | 33.64406 | -84.43720 | 1017 ft | 10 kts | 9° |
| 2026-05-04 07:30 | 33.64460 | -84.43634 | 1015 ft | 17 kts | 86° |
| 2026-05-04 07:31 | 33.64460 | -84.43462 | 1013 ft | 21 kts | 90° |
| 2026-05-04 07:31 | 33.64460 | -84.43290 | 1009 ft | 20 kts | 90° |
| 2026-05-04 07:33 | 33.64537 | -84.42105 | 977 ft | 19 kts | 75° |
| 2026-05-04 07:33 | 33.64542 | -84.41934 | 973 ft | 20 kts | 90° |
| 2026-05-04 07:33 | 33.64542 | -84.41758 | 970 ft | 21 kts | 90° |
| 2026-05-04 07:33 | 33.64542 | -84.41585 | 970 ft | 20 kts | 90° |
| 2026-05-04 07:34 | 33.64543 | -84.41420 | 973 ft | 20 kts | 90° |
| 2026-05-04 07:34 | 33.64543 | -84.41228 | 975 ft | 25 kts | 90° |
| 2026-05-04 07:34 | 33.64543 | -84.41023 | 978 ft | 23 kts | 90° |
| 2026-05-04 07:34 | 33.64548 | -84.40842 | 976 ft | 18 kts | 76° |
| 2026-05-04 07:35 | 33.64570 | -84.40730 | 977 ft | 12 kts | 89° |
| 2026-05-04 07:35 | 33.64571 | -84.40617 | 975 ft | 13 kts | 90° |
| 2026-05-04 07:35 | 33.64609 | -84.40560 | 975 ft | 8 kts | 0° |
| 2026-05-04 07:35 | 33.64660 | -84.40570 | 977 ft | 7 kts | 336° |
| 2026-05-04 07:36 | 33.64679 | -84.40624 | 979 ft | 8 kts | 270° |
| 2026-05-04 07:36 | 33.64679 | -84.40859 | 983 ft | 59 kts | 270° |
| 2026-05-04 07:38 | 33.66210 | -84.50006 | 3658 ft | 202 kts | 297° |
| 2026-05-04 07:38 | 33.66884 | -84.51576 | 3905 ft | 224 kts | 296° |
| 2026-05-04 07:38 | 33.67596 | -84.53316 | 4266 ft | 243 kts | 296° |
| 2026-05-04 07:38 | 33.68326 | -84.55180 | 4886 ft | 250 kts | 295° |
| 2026-05-04 07:39 | 33.69178 | -84.56954 | 5610 ft | 251 kts | 309° |
| 2026-05-04 07:39 | 33.70530 | -84.58335 | 6070 ft | 264 kts | 331° |
| 2026-05-04 07:39 | 33.72284 | -84.59035 | 6776 ft | 267 kts | 352° |
| 2026-05-04 07:39 | 33.74117 | -84.59023 | 7452 ft | 271 kts | 8° |
| 2026-05-04 07:40 | 33.75966 | -84.58483 | 8159 ft | 274 kts | 19° |
| 2026-05-04 07:40 | 33.77671 | -84.57504 | 8875 ft | 276 kts | 31° |
| 2026-05-04 07:40 | 33.79162 | -84.56049 | 9561 ft | 279 kts | 45° |
| 2026-05-04 07:40 | 33.80362 | -84.54234 | 10250 ft | 282 kts | 56° |
| 2026-05-04 07:41 | 33.81274 | -84.52060 | 10612 ft | 299 kts | 66° |
| 2026-05-04 07:41 | 33.82011 | -84.49676 | 10997 ft | 313 kts | 69° |
| 2026-05-04 07:41 | 33.82743 | -84.47144 | 11284 ft | 329 kts | 69° |
| 2026-05-04 07:41 | 33.83527 | -84.44490 | 11582 ft | 344 kts | 68° |
| 2026-05-04 07:42 | 33.84365 | -84.41737 | 11861 ft | 360 kts | 68° |
| 2026-05-04 07:42 | 33.85259 | -84.38864 | 12195 ft | 373 kts | 68° |
| 2026-05-04 07:42 | 33.86179 | -84.35938 | 12734 ft | 380 kts | 67° |
| 2026-05-04 07:42 | 33.87123 | -84.32944 | 13330 ft | 385 kts | 68° |
| 2026-05-04 07:43 | 33.88079 | -84.29908 | 13932 ft | 391 kts | 68° |
| 2026-05-04 07:43 | 33.89044 | -84.26840 | 14533 ft | 396 kts | 68° |
| 2026-05-04 07:43 | 33.90015 | -84.23750 | 15136 ft | 402 kts | 68° |
| 2026-05-04 07:43 | 33.91016 | -84.20560 | 15778 ft | 406 kts | 67° |
| 2026-05-04 07:44 | 33.92013 | -84.17376 | 16389 ft | 411 kts | 68° |
| 2026-05-04 07:44 | 33.93019 | -84.14161 | 16923 ft | 418 kts | 68° |
| 2026-05-04 07:44 | 33.94046 | -84.10875 | 17511 ft | 422 kts | 68° |
| 2026-05-04 07:44 | 33.95085 | -84.07546 | 18052 ft | 428 kts | 68° |
| 2026-05-04 07:45 | 33.96137 | -84.04172 | 18590 ft | 433 kts | 67° |
| 2026-05-04 07:45 | 33.97195 | -84.00776 | 19180 ft | 436 kts | 67° |
| 2026-05-04 07:45 | 33.98257 | -83.97360 | 19722 ft | 441 kts | 67° |
| 2026-05-04 07:45 | 33.99335 | -83.93892 | 20257 ft | 445 kts | 67° |
| 2026-05-04 07:46 | 34.00418 | -83.90408 | 20765 ft | 449 kts | 66° |
| 2026-05-04 07:46 | 34.01507 | -83.86898 | 21289 ft | 453 kts | 66° |
| 2026-05-04 07:46 | 34.02610 | -83.83341 | 21778 ft | 457 kts | 66° |
| 2026-05-04 07:46 | 34.03731 | -83.79717 | 22302 ft | 460 kts | 66° |
| 2026-05-04 07:47 | 34.04839 | -83.76132 | 22723 ft | 465 kts | 66° |
| 2026-05-04 07:47 | 34.05968 | -83.72475 | 23225 ft | 467 kts | 66° |
| 2026-05-04 07:47 | 34.07107 | -83.68780 | 23669 ft | 471 kts | 66° |
| 2026-05-04 07:49 | 34.15255 | -83.42205 | 26698 ft | 498 kts | 65° |
| 2026-05-04 07:49 | 34.16452 | -83.38278 | 27181 ft | 500 kts | 65° |
| 2026-05-04 07:49 | 34.17648 | -83.34352 | 27657 ft | 501 kts | 66° |
| 2026-05-04 07:50 | 34.18842 | -83.30417 | 28285 ft | 498 kts | 66° |
| 2026-05-04 07:50 | 34.20017 | -83.26539 | 28837 ft | 497 kts | 66° |
| 2026-05-04 07:50 | 34.21202 | -83.22623 | 29354 ft | 496 kts | 65° |
| 2026-05-04 07:50 | 34.22391 | -83.18694 | 29882 ft | 495 kts | 66° |
| 2026-05-04 07:51 | 34.23569 | -83.14795 | 30352 ft | 495 kts | 65° |
| 2026-05-04 07:51 | 34.24744 | -83.10904 | 30794 ft | 495 kts | 65° |
| 2026-05-04 07:51 | 34.25912 | -83.07033 | 31191 ft | 495 kts | 65° |
| 2026-05-04 07:51 | 34.27085 | -83.03142 | 31652 ft | 494 kts | 65° |
| 2026-05-04 07:52 | 34.28263 | -82.99230 | 32093 ft | 493 kts | 65° |
| 2026-05-04 07:52 | 34.29430 | -82.95345 | 32498 ft | 493 kts | 65° |
| 2026-05-04 07:52 | 34.30589 | -82.91485 | 32920 ft | 492 kts | 65° |
| 2026-05-04 07:52 | 34.31746 | -82.87621 | 33378 ft | 490 kts | 64° |
| 2026-05-04 07:53 | 34.32900 | -82.83766 | 33749 ft | 489 kts | 64° |
| 2026-05-04 07:54 | 34.41008 | -82.56551 | 35089 ft | 489 kts | 64° |
| 2026-05-04 07:55 | 34.43297 | -82.48814 | 35083 ft | 489 kts | 64° |
| 2026-05-04 07:55 | 34.45606 | -82.40991 | 35079 ft | 489 kts | 64° |
| 2026-05-04 07:56 | 34.47893 | -82.33226 | 35081 ft | 490 kts | 65° |
| 2026-05-04 07:56 | 34.50161 | -82.25498 | 35080 ft | 489 kts | 65° |
| 2026-05-04 07:57 | 34.52663 | -82.17836 | 35079 ft | 484 kts | 58° |
| 2026-05-04 07:57 | 34.56092 | -82.10913 | 35087 ft | 477 kts | 49° |
| 2026-05-04 07:58 | 34.60002 | -82.04476 | 35086 ft | 474 kts | 46° |
| 2026-05-04 07:58 | 34.64005 | -81.98144 | 35086 ft | 475 kts | 46° |
| 2026-05-04 07:59 | 34.67988 | -81.91768 | 35084 ft | 476 kts | 46° |
| 2026-05-04 07:59 | 34.71944 | -81.85328 | 35081 ft | 476 kts | 47° |
| 2026-05-04 08:00 | 34.75869 | -81.78868 | 35080 ft | 478 kts | 47° |
| 2026-05-04 08:02 | 34.91541 | -81.52834 | 35082 ft | 479 kts | 47° |
| 2026-05-04 08:02 | 34.95433 | -81.46334 | 35078 ft | 477 kts | 47° |
| 2026-05-04 08:03 | 34.99362 | -81.39767 | 35081 ft | 479 kts | 48° |
| 2026-05-04 08:03 | 35.03278 | -81.33213 | 35079 ft | 479 kts | 49° |
| 2026-05-04 08:04 | 35.07202 | -81.26627 | 35082 ft | 481 kts | 49° |
| 2026-05-04 08:04 | 35.11116 | -81.20045 | 35087 ft | 481 kts | 49° |
| 2026-05-04 08:05 | 35.15039 | -81.13436 | 35085 ft | 482 kts | 49° |
| 2026-05-04 08:05 | 35.18962 | -81.06809 | 35088 ft | 480 kts | 49° |
| 2026-05-04 08:06 | 35.22860 | -81.00223 | 35091 ft | 480 kts | 48° |
| 2026-05-04 08:06 | 35.26772 | -80.93607 | 35095 ft | 481 kts | 48° |
| 2026-05-04 08:08 | 35.42430 | -80.67005 | 35093 ft | 482 kts | 49° |
| 2026-05-04 08:11 | 35.60003 | -80.36902 | 35083 ft | 484 kts | 48° |
| 2026-05-04 08:11 | 35.65875 | -80.26784 | 35083 ft | 484 kts | 49° |
| 2026-05-04 08:12 | 35.69761 | -80.20071 | 35084 ft | 484 kts | 49° |
| 2026-05-04 08:12 | 35.73683 | -80.13285 | 35084 ft | 484 kts | 49° |
| 2026-05-04 08:13 | 35.77575 | -80.06538 | 35084 ft | 486 kts | 49° |
| 2026-05-04 08:13 | 35.81469 | -79.99764 | 35084 ft | 485 kts | 49° |
| 2026-05-04 08:14 | 35.85341 | -79.93011 | 35086 ft | 485 kts | 49° |
| 2026-05-04 08:16 | 36.01123 | -79.65774 | 35083 ft | 489 kts | 48° |
| 2026-05-04 08:16 | 36.05089 | -79.59020 | 35076 ft | 489 kts | 48° |
| 2026-05-04 08:17 | 36.09053 | -79.52245 | 35081 ft | 489 kts | 48° |
| 2026-05-04 08:17 | 36.13043 | -79.45404 | 35080 ft | 489 kts | 49° |
| 2026-05-04 08:19 | 36.28935 | -79.18018 | 35078 ft | 491 kts | 50° |
| 2026-05-04 08:20 | 36.32905 | -79.11145 | 35081 ft | 491 kts | 50° |
| 2026-05-04 08:20 | 36.36851 | -79.04300 | 35085 ft | 491 kts | 50° |
| 2026-05-04 08:21 | 36.40828 | -78.97390 | 35075 ft | 491 kts | 50° |
| 2026-05-04 08:21 | 36.44787 | -78.90494 | 35075 ft | 493 kts | 50° |
| 2026-05-04 08:22 | 36.48754 | -78.83564 | 35067 ft | 492 kts | 50° |
| 2026-05-04 08:24 | 36.63531 | -78.60112 | 35075 ft | 491 kts | 39° |
| 2026-05-04 08:24 | 36.65951 | -78.57224 | 35073 ft | 488 kts | 38° |
| 2026-05-04 08:24 | 36.70953 | -78.51409 | 35079 ft | 492 kts | 37° |
| 2026-05-04 08:25 | 36.75922 | -78.45604 | 35080 ft | 491 kts | 38° |
| 2026-05-04 08:25 | 36.80868 | -78.39738 | 35082 ft | 492 kts | 38° |
| 2026-05-04 08:27 | 37.00665 | -78.15898 | 35078 ft | 497 kts | 39° |
| 2026-05-04 08:28 | 37.05619 | -78.09895 | 35077 ft | 496 kts | 39° |
| 2026-05-04 08:28 | 37.08102 | -78.06882 | 34874 ft | 494 kts | 39° |
| 2026-05-04 08:28 | 37.10541 | -78.03913 | 34397 ft | 492 kts | 39° |
| 2026-05-04 08:29 | 37.12987 | -78.00935 | 33698 ft | 493 kts | 39° |
| 2026-05-04 08:29 | 37.15450 | -77.97937 | 32918 ft | 496 kts | 38° |
| 2026-05-04 08:29 | 37.17912 | -77.94942 | 32081 ft | 500 kts | 39° |
| 2026-05-04 08:31 | 37.35129 | -77.73865 | 27626 ft | 479 kts | 38° |
| 2026-05-04 08:33 | 37.51268 | -77.53997 | 23685 ft | 453 kts | 37° |
| 2026-05-04 08:33 | 37.53505 | -77.51234 | 23132 ft | 449 kts | 37° |
| 2026-05-04 08:35 | 37.71028 | -77.40852 | 22081 ft | 386 kts | 4° |
| 2026-05-04 08:35 | 37.73638 | -77.40097 | 21914 ft | 388 kts | 4° |
| 2026-05-04 08:35 | 37.76264 | -77.39323 | 21630 ft | 384 kts | 4° |
| 2026-05-04 08:35 | 37.78860 | -77.38540 | 21219 ft | 379 kts | 4° |
| 2026-05-04 08:37 | 37.93973 | -77.33897 | 18296 ft | 367 kts | 5° |
| 2026-05-04 08:37 | 37.96434 | -77.33139 | 17785 ft | 365 kts | 5° |
| 2026-05-04 08:37 | 37.98901 | -77.32381 | 17261 ft | 363 kts | 6° |
| 2026-05-04 08:38 | 38.01333 | -77.31633 | 16773 ft | 361 kts | 6° |
| 2026-05-04 08:38 | 38.03787 | -77.30875 | 16277 ft | 358 kts | 6° |
| 2026-05-04 08:38 | 38.06193 | -77.30132 | 15790 ft | 355 kts | 6° |
| 2026-05-04 08:40 | 38.22404 | -77.24981 | 12984 ft | 331 kts | 9° |
| 2026-05-04 08:40 | 38.24633 | -77.24144 | 13015 ft | 338 kts | 10° |
| 2026-05-04 08:40 | 38.26902 | -77.23265 | 12914 ft | 335 kts | 10° |
| 2026-05-04 08:41 | 38.29115 | -77.22401 | 12545 ft | 331 kts | 11° |
| 2026-05-04 08:41 | 38.31301 | -77.21555 | 12110 ft | 328 kts | 11° |
| 2026-05-04 08:41 | 38.33456 | -77.20730 | 11664 ft | 325 kts | 10° |
| 2026-05-04 08:41 | 38.35638 | -77.19900 | 11218 ft | 322 kts | 11° |
| 2026-05-04 08:42 | 38.37767 | -77.19092 | 11028 ft | 320 kts | 11° |
| 2026-05-04 08:42 | 38.39930 | -77.18269 | 10994 ft | 329 kts | 11° |
| 2026-05-04 08:42 | 38.42108 | -77.17432 | 10961 ft | 326 kts | 11° |
| 2026-05-04 08:42 | 38.44283 | -77.16590 | 10990 ft | 328 kts | 11° |
| 2026-05-04 08:43 | 38.46476 | -77.15741 | 11009 ft | 329 kts | 11° |
| 2026-05-04 08:43 | 38.48665 | -77.14892 | 10768 ft | 325 kts | 11° |
| 2026-05-04 08:43 | 38.50813 | -77.14056 | 10447 ft | 319 kts | 11° |
| 2026-05-04 08:43 | 38.52879 | -77.13250 | 10328 ft | 308 kts | 11° |
| 2026-05-04 08:44 | 38.54898 | -77.12463 | 10217 ft | 296 kts | 11° |
| 2026-05-04 08:44 | 38.56833 | -77.11710 | 10080 ft | 285 kts | 11° |
| 2026-05-04 08:46 | 38.69874 | -77.06915 | 8575 ft | 272 kts | 2° |
| 2026-05-04 08:46 | 38.71739 | -77.06686 | 8240 ft | 268 kts | 358° |
| 2026-05-04 08:46 | 38.73586 | -77.06556 | 7901 ft | 266 kts | 358° |
| 2026-05-04 08:46 | 38.75447 | -77.06472 | 7566 ft | 262 kts | 353° |
| 2026-05-04 08:47 | 38.77197 | -77.06830 | 7247 ft | 253 kts | 334° |
| 2026-05-04 08:47 | 38.78711 | -77.07885 | 6951 ft | 246 kts | 322° |
| 2026-05-04 08:47 | 38.80119 | -77.09131 | 6630 ft | 244 kts | 321° |
| 2026-05-04 08:47 | 38.81519 | -77.10353 | 6328 ft | 243 kts | 322° |
| 2026-05-04 08:48 | 38.82923 | -77.11547 | 6032 ft | 241 kts | 321° |
| 2026-05-04 08:48 | 38.84220 | -77.12917 | 5990 ft | 244 kts | 314° |
| 2026-05-04 08:48 | 38.85439 | -77.14431 | 5848 ft | 243 kts | 311° |
| 2026-05-04 08:48 | 38.86620 | -77.15950 | 5589 ft | 239 kts | 311° |
| 2026-05-04 08:49 | 38.87803 | -77.17456 | 5289 ft | 238 kts | 312° |
| 2026-05-04 08:50 | 38.94933 | -77.25611 | 3642 ft | 221 kts | 345° |
| 2026-05-04 08:50 | 38.96432 | -77.25534 | 3570 ft | 217 kts | 12° |
| 2026-05-04 08:51 | 38.97842 | -77.24761 | 3516 ft | 221 kts | 28° |
| 2026-05-04 08:51 | 38.98983 | -77.23449 | 3446 ft | 223 kts | 55° |
| 2026-05-04 08:51 | 38.99497 | -77.21629 | 3380 ft | 214 kts | 86° |
| 2026-05-04 08:51 | 38.99401 | -77.19795 | 3307 ft | 200 kts | 105° |
| 2026-05-04 08:52 | 38.98936 | -77.18130 | 3248 ft | 197 kts | 125° |
| 2026-05-04 08:52 | 38.98020 | -77.16876 | 3192 ft | 192 kts | 146° |
| 2026-05-04 08:52 | 38.96978 | -77.15816 | 3126 ft | 192 kts | 145° |
| 2026-05-04 08:52 | 38.95958 | -77.14713 | 2984 ft | 194 kts | 143° |
| 2026-05-04 08:53 | 38.94942 | -77.13578 | 2699 ft | 193 kts | 142° |
| 2026-05-04 08:54 | 38.89331 | -77.05821 | 809 ft | 149 kts | 149° |
| 2026-05-04 08:55 | 38.88470 | -77.05106 | 615 ft | 148 kts | 146° |
| 2026-05-04 08:55 | 38.87650 | -77.04322 | 395 ft | 146 kts | 150° |
| 2026-05-04 08:55 | 38.86722 | -77.03920 | 196 ft | 140 kts | 176° |
| 2026-05-04 08:55 | 38.85759 | -77.03833 | 16 ft | 132 kts | 176° |
| 2026-05-04 08:57 | 38.85078 | -77.03959 | 19 ft | 5 kts | 323° |